Time;durP1;ratioP1;P1;durP2;ratioP2;P2;SDS_P1;SDS_P2;PMS_P1;PMS_P2;Temp;Humidity;BMP_temperature;BMP_pressure;BME280_temperature;BME280_humidity;BME280_pressure;Samples;Min_cycle;Max_cycle;Signal;HPM_P1;HPM_P2
2023/08/05 00:01:13;;;;;;;8.57;2.83;;;13.50;99.90;;;;;;5012916;28;20406;-49
2023/08/05 00:03:38;;;;;;;5.75;2.70;;;13.50;99.90;;;;;;5012590;28;20037;-50
2023/08/05 00:06:04;;;;;;;5.68;2.60;;;13.50;99.90;;;;;;5012749;28;20026;-53
2023/08/05 00:08:29;;;;;;;5.88;3.10;;;13.50;99.90;;;;;;5012700;28;20041;-52
2023/08/05 00:10:55;;;;;;;7.03;3.00;;;13.50;99.90;;;;;;5012810;28;20495;-50
2023/08/05 00:13:21;;;;;;;4.38;2.47;;;13.50;99.90;;;;;;5012467;28;20065;-49
2023/08/05 00:15:47;;;;;;;4.80;2.30;;;13.40;99.90;;;;;;5012443;28;20029;-50
2023/08/05 00:18:12;;;;;;;5.07;2.72;;;13.40;99.90;;;;;;5012783;28;20026;-51
2023/08/05 00:20:38;;;;;;;4.97;2.42;;;13.40;99.90;;;;;;4995113;28;20101;-51
2023/08/05 00:23:03;;;;;;;5.00;2.50;;;13.40;99.90;;;;;;5012400;28;20056;-49
2023/08/05 00:25:29;;;;;;;5.68;2.90;;;13.50;99.90;;;;;;5012276;28;20046;-53
2023/08/05 00:27:55;;;;;;;9.02;3.08;;;13.50;99.90;;;;;;5012526;28;20498;-49
2023/08/05 00:30:20;;;;;;;5.97;2.35;;;13.50;99.90;;;;;;4994059;28;20033;-49
2023/08/05 00:32:46;;;;;;;5.45;2.75;;;13.50;99.90;;;;;;5012166;28;20088;-49
2023/08/05 00:35:12;;;;;;;5.07;2.65;;;13.50;99.90;;;;;;4978409;28;20032;-50
2023/08/05 00:37:38;;;;;;;4.40;2.40;;;13.50;99.90;;;;;;5012198;28;20029;-53
2023/08/05 00:40:05;;;;;;;8.10;2.70;;;13.50;99.90;;;;;;4978653;28;20088;-52
2023/08/05 00:42:32;;;;;;;6.75;2.58;;;13.50;99.90;;;;;;5011952;28;20062;-49
2023/08/05 00:44:57;;;;;;;6.60;3.33;;;13.50;99.90;;;;;;4994279;28;20030;-50
2023/08/05 00:47:24;;;;;;;7.53;2.70;;;13.50;99.90;;;;;;4994797;28;20022;-50
2023/08/05 00:49:52;;;;;;;7.00;2.90;;;13.50;99.90;;;;;;4994470;28;20030;-52
2023/08/05 00:52:20;;;;;;;4.55;2.42;;;13.50;99.90;;;;;;4994157;28;20099;-49
2023/08/05 00:54:46;;;;;;;6.35;3.05;;;13.50;99.90;;;;;;4994121;28;20030;-52
2023/08/05 00:57:12;;;;;;;5.57;2.65;;;13.50;99.90;;;;;;5011951;28;20073;-48
2023/08/05 00:59:38;;;;;;;5.00;2.38;;;13.50;99.90;;;;;;4994445;28;20540;-54
2023/08/05 01:02:05;;;;;;;6.30;3.20;;;13.50;99.90;;;;;;5011605;28;20095;-53
2023/08/05 01:04:32;;;;;;;4.80;2.65;;;13.50;99.90;;;;;;5011472;28;20037;-49
2023/08/05 01:06:58;;;;;;;4.47;2.28;;;13.50;99.90;;;;;;4993905;28;20497;-49
2023/08/05 01:09:25;;;;;;;6.78;2.45;;;13.50;99.90;;;;;;4994146;28;20045;-51
2023/08/05 01:11:51;;;;;;;5.65;3.13;;;13.60;99.90;;;;;;5011405;28;20514;-53
2023/08/05 01:14:17;;;;;;;5.00;2.60;;;13.60;99.90;;;;;;4994107;28;20033;-49
2023/08/05 01:16:44;;;;;;;8.90;2.63;;;13.50;99.90;;;;;;5011593;28;20061;-50
2023/08/05 01:19:18;;;;;;;5.88;2.53;;;13.50;99.90;;;;;;4977736;28;20088;-50
2023/08/05 01:22:23;;;;;;;6.55;2.40;;;13.50;99.90;;;;;;5011355;28;20033;-49
2023/08/05 01:25:02;;;;;;;6.70;3.30;;;13.50;99.90;;;;;;4971170;28;20034;-49
2023/08/05 01:27:29;;;;;;;5.53;2.55;;;13.50;99.90;;;;;;4993799;28;20038;-49
2023/08/05 01:29:55;;;;;;;4.10;2.40;;;13.50;99.90;;;;;;4993803;28;20034;-49
2023/08/05 01:32:22;;;;;;;6.10;2.85;;;13.40;99.90;;;;;;5011032;28;20049;-49
2023/08/05 01:34:48;;;;;;;5.07;2.78;;;13.40;99.90;;;;;;4993408;28;20034;-52
2023/08/05 01:37:13;;;;;;;8.23;2.90;;;13.40;99.90;;;;;;4993555;28;20527;-49
2023/08/05 01:39:39;;;;;;;5.10;2.42;;;13.40;99.90;;;;;;5011194;28;20112;-50
2023/08/05 01:42:05;;;;;;;4.93;2.97;;;13.40;99.90;;;;;;4993423;28;20478;-50
2023/08/05 01:44:31;;;;;;;5.97;2.83;;;13.40;99.90;;;;;;5010901;28;20040;-51
2023/08/05 01:46:57;;;;;;;6.47;2.53;;;13.40;99.90;;;;;;4993514;28;20037;-50
2023/08/05 01:49:23;;;;;;;6.93;3.10;;;13.40;99.90;;;;;;4993608;28;20029;-49
2023/08/05 01:51:49;;;;;;;6.85;2.80;;;13.40;99.90;;;;;;5010743;28;20071;-51
2023/08/05 01:54:16;;;;;;;5.10;2.58;;;13.40;99.90;;;;;;5010986;28;20057;-54
2023/08/05 01:56:41;;;;;;;4.20;2.55;;;13.40;99.90;;;;;;4993405;28;20030;-54
2023/08/05 01:59:07;;;;;;;5.03;2.50;;;13.50;99.90;;;;;;4993271;28;20109;-55
2023/08/05 02:01:46;;;;;;;4.88;2.55;;;13.50;99.90;;;;;;4993138;28;20040;-55
2023/08/05 02:04:13;;;;;;;7.97;4.00;;;13.50;99.90;;;;;;5010723;28;20034;-55
2023/08/05 02:06:39;;;;;;;6.70;2.75;;;13.50;99.90;;;;;;4993115;28;20478;-54
2023/08/05 02:09:05;;;;;;;5.90;3.10;;;13.40;99.90;;;;;;4993441;28;20062;-52
2023/08/05 02:11:31;;;;;;;9.18;2.85;;;13.40;99.90;;;;;;5010749;28;20439;-51
2023/08/05 02:13:57;;;;;;;6.60;3.28;;;13.40;99.90;;;;;;4993332;28;20057;-53
2023/08/05 02:16:22;;;;;;;7.60;3.67;;;13.30;99.90;;;;;;5010784;28;20030;-55
2023/08/05 02:18:51;;;;;;;7.68;3.10;;;13.30;99.90;;;;;;4993203;28;20032;-53
2023/08/05 02:21:17;;;;;;;5.78;3.03;;;13.30;99.90;;;;;;4993333;28;20474;-54
2023/08/05 02:23:43;;;;;;;6.28;3.20;;;13.40;99.90;;;;;;4993360;28;20088;-54
2023/08/05 02:26:08;;;;;;;7.45;3.63;;;13.40;99.90;;;;;;4993386;28;20026;-53
2023/08/05 02:28:34;;;;;;;6.97;3.40;;;13.40;99.90;;;;;;5011144;28;20076;-55
2023/08/05 02:30:59;;;;;;;6.20;3.17;;;13.50;99.90;;;;;;5010907;28;20030;-54
2023/08/05 02:33:25;;;;;;;6.15;3.08;;;13.40;99.90;;;;;;4992731;28;20030;-50
2023/08/05 02:35:57;;;;;;;7.70;3.38;;;13.50;99.90;;;;;;4992819;28;20063;-49
2023/08/05 02:38:23;;;;;;;6.60;3.55;;;13.50;99.90;;;;;;4993071;28;20402;-51
2023/08/05 02:40:48;;;;;;;5.63;3.33;;;13.50;99.90;;;;;;4993049;28;20030;-52
2023/08/05 02:43:14;;;;;;;5.25;3.00;;;13.60;99.90;;;;;;4992863;28;20037;-53
2023/08/05 02:45:40;;;;;;;6.90;3.33;;;13.60;99.90;;;;;;4976560;28;20053;-51
2023/08/05 02:48:06;;;;;;;6.55;3.15;;;13.60;99.90;;;;;;4993017;28;20036;-51
2023/08/05 02:50:32;;;;;;;6.03;2.80;;;13.60;99.90;;;;;;4992788;28;20121;-51
2023/08/05 02:52:57;;;;;;;7.22;4.45;;;13.60;99.90;;;;;;4993767;28;20025;-49
2023/08/05 02:55:23;;;;;;;5.90;3.20;;;13.60;99.90;;;;;;4996785;28;20399;-52
2023/08/05 02:57:48;;;;;;;8.20;3.42;;;13.60;99.90;;;;;;4996602;28;20030;-54
2023/08/05 03:00:14;;;;;;;6.20;3.47;;;13.60;99.90;;;;;;5014108;28;20058;-51
2023/08/05 03:02:40;;;;;;;6.07;3.35;;;13.60;99.90;;;;;;5013885;28;20510;-50
2023/08/05 03:05:06;;;;;;;6.20;3.67;;;13.60;99.90;;;;;;5013796;28;20036;-53
2023/08/05 03:07:31;;;;;;;5.97;2.97;;;13.60;99.90;;;;;;4996375;28;20483;-49
2023/08/05 03:09:57;;;;;;;6.78;3.40;;;13.50;99.90;;;;;;4996404;28;20034;-54
2023/08/05 03:12:24;;;;;;;9.32;3.00;;;13.50;99.90;;;;;;4995985;28;20478;-52
2023/08/05 03:14:53;;;;;;;6.22;3.53;;;13.50;99.90;;;;;;4995910;28;20037;-54
2023/08/05 03:17:19;;;;;;;5.97;2.92;;;13.50;99.90;;;;;;4996485;28;20034;-52
2023/08/05 03:19:45;;;;;;;5.13;2.97;;;13.50;99.90;;;;;;4996140;28;20053;-51
2023/08/05 03:22:11;;;;;;;6.40;3.08;;;13.50;99.90;;;;;;4995962;28;20501;-51
2023/08/05 03:24:42;;;;;;;4.85;2.95;;;13.50;99.90;;;;;;4995925;28;20036;-51
2023/08/05 03:27:08;;;;;;;10.07;3.80;;;13.50;99.90;;;;;;5013674;28;20030;-51
2023/08/05 03:29:33;;;;;;;4.80;3.05;;;13.40;99.90;;;;;;4995850;28;20034;-50
2023/08/05 03:32:00;;;;;;;7.10;3.40;;;13.40;99.90;;;;;;4995659;28;20389;-53
2023/08/05 03:34:26;;;;;;;9.32;3.33;;;13.30;99.90;;;;;;4996050;28;20050;-50
2023/08/05 03:36:55;;;;;;;6.95;3.22;;;13.20;99.90;;;;;;4995736;28;20060;-50
2023/08/05 03:39:20;;;;;;;6.10;3.47;;;13.20;99.90;;;;;;4979589;28;20066;-50
2023/08/05 03:41:46;;;;;;;5.97;3.25;;;13.20;99.90;;;;;;5013246;28;20057;-52
2023/08/05 03:44:13;;;;;;;5.53;3.40;;;13.20;99.90;;;;;;4995595;28;20034;-52
2023/08/05 03:46:38;;;;;;;7.05;4.32;;;13.20;99.90;;;;;;5013151;28;20033;-53
2023/08/05 03:49:04;;;;;;;9.35;3.97;;;13.20;99.90;;;;;;4995564;28;20033;-50
2023/08/05 03:51:30;;;;;;;8.07;3.95;;;13.20;99.90;;;;;;4995399;28;20060;-51
2023/08/05 03:53:59;;;;;;;8.32;3.88;;;13.20;99.90;;;;;;4995463;28;20558;-51
2023/08/05 03:56:27;;;;;;;7.43;3.90;;;13.20;99.90;;;;;;4995307;28;20029;-50
2023/08/05 03:58:57;;;;;;;10.07;4.55;;;13.10;99.90;;;;;;4995597;28;20028;-52
2023/08/05 04:01:23;;;;;;;7.97;4.00;;;13.10;99.90;;;;;;4995326;28;20029;-53
2023/08/05 04:03:50;;;;;;;7.05;3.95;;;13.20;99.90;;;;;;4994528;28;20030;-52
2023/08/05 04:06:16;;;;;;;7.20;3.85;;;13.20;99.90;;;;;;4994650;28;20022;-52
2023/08/05 04:08:42;;;;;;;7.53;3.85;;;13.20;99.90;;;;;;5012771;28;20026;-51
2023/08/05 04:11:08;;;;;;;8.32;3.97;;;13.20;99.90;;;;;;4995216;28;20113;-51
2023/08/05 04:13:37;;;;;;;10.80;4.18;;;13.30;99.90;;;;;;4994707;28;20503;-51
2023/08/05 04:16:04;;;;;;;9.35;4.78;;;13.30;99.90;;;;;;4994914;28;20041;-53
2023/08/05 04:18:34;;;;;;;11.93;4.38;;;13.20;99.90;;;;;;4994961;28;20372;-54
2023/08/05 04:21:00;;;;;;;8.30;4.40;;;13.20;99.90;;;;;;5012795;28;20022;-53
2023/08/05 04:23:29;;;;;;;8.95;4.47;;;13.20;99.90;;;;;;4994781;28;20460;-52
2023/08/05 04:25:54;;;;;;;12.68;4.60;;;13.20;99.90;;;;;;4994681;28;20045;-51
2023/08/05 04:28:20;;;;;;;7.75;4.50;;;13.10;99.90;;;;;;5012563;28;20026;-50
2023/08/05 04:30:48;;;;;;;9.20;4.40;;;13.10;99.90;;;;;;5012514;28;20030;-52
2023/08/05 04:33:14;;;;;;;8.38;4.20;;;13.10;99.90;;;;;;5012191;28;20193;-50
2023/08/05 04:35:45;;;;;;;7.07;4.18;;;13.00;99.90;;;;;;5012213;28;20454;-52
2023/08/05 04:38:10;;;;;;;9.85;4.43;;;13.00;99.90;;;;;;5012279;28;20034;-50
2023/08/05 04:40:36;;;;;;;8.93;4.43;;;13.00;99.90;;;;;;5012254;28;20026;-52
2023/08/05 04:43:03;;;;;;;9.18;4.57;;;13.00;99.90;;;;;;5011950;28;20033;-52
2023/08/05 04:45:28;;;;;;;9.30;4.40;;;13.00;99.90;;;;;;5011975;28;20034;-52
2023/08/05 04:47:54;;;;;;;8.95;4.68;;;13.00;99.90;;;;;;5012068;28;20045;-50
2023/08/05 04:50:20;;;;;;;9.88;4.60;;;13.10;99.90;;;;;;5012110;28;20034;-52
2023/08/05 04:52:46;;;;;;;8.57;4.65;;;13.20;99.90;;;;;;5011652;28;20121;-50
2023/08/05 04:55:12;;;;;;;8.13;4.60;;;13.30;99.90;;;;;;5011776;28;20045;-54
2023/08/05 04:57:38;;;;;;;7.70;4.22;;;13.40;99.90;;;;;;5011946;28;20026;-52
2023/08/05 05:00:04;;;;;;;10.32;4.35;;;13.40;99.90;;;;;;5011945;28;20088;-53
2023/08/05 05:02:30;;;;;;;9.07;4.93;;;13.40;99.90;;;;;;5011595;28;20084;-53
2023/08/05 05:04:55;;;;;;;13.00;5.25;;;13.40;99.90;;;;;;5011732;28;20108;-50
2023/08/05 05:07:22;;;;;;;11.63;5.35;;;13.50;99.90;;;;;;4994111;28;20042;-55
2023/08/05 05:09:47;;;;;;;12.30;5.82;;;13.50;99.90;;;;;;5011861;28;20153;-56
2023/08/05 05:12:13;;;;;;;13.23;5.30;;;13.60;99.90;;;;;;5011501;28;20121;-53
2023/08/05 05:14:44;;;;;;;10.95;5.70;;;13.70;99.90;;;;;;5011784;28;20034;-54
2023/08/05 05:17:10;;;;;;;10.23;5.47;;;13.80;99.90;;;;;;5011570;28;20482;-52
2023/08/05 05:19:35;;;;;;;9.15;4.97;;;13.90;99.90;;;;;;5011891;28;20103;-55
2023/08/05 05:22:01;;;;;;;10.20;4.90;;;14.00;99.90;;;;;;5011595;28;20030;-54
2023/08/05 05:24:29;;;;;;;9.35;5.70;;;14.00;99.90;;;;;;5011762;28;20038;-50
2023/08/05 05:26:57;;;;;;;11.27;5.38;;;14.10;99.90;;;;;;5011432;28;20426;-59
2023/08/05 05:29:23;;;;;;;12.65;5.32;;;14.20;99.90;;;;;;5011651;28;20034;-54
2023/08/05 05:31:49;;;;;;;10.85;5.20;;;14.30;99.90;;;;;;5011194;28;20033;-52
2023/08/05 05:34:15;;;;;;;11.70;6.07;;;14.50;99.90;;;;;;5011363;28;20113;-50
2023/08/05 05:36:40;;;;;;;9.68;5.05;;;14.50;99.90;;;;;;5011262;28;20049;-53
2023/08/05 05:39:06;;;;;;;10.32;6.03;;;14.50;99.90;;;;;;5011569;28;20073;-50
2023/08/05 05:41:31;;;;;;;11.05;5.60;;;14.60;99.90;;;;;;5011125;28;20466;-53
2023/08/05 05:43:58;;;;;;;11.40;6.00;;;14.60;99.90;;;;;;5011093;28;20109;-50
2023/08/05 05:46:25;;;;;;;11.77;6.15;;;14.70;99.90;;;;;;5011084;28;20034;-49
2023/08/05 05:48:50;;;;;;;10.93;5.85;;;14.70;99.90;;;;;;5011148;28;20446;-51
2023/08/05 05:51:16;;;;;;;11.73;6.85;;;14.70;99.90;;;;;;5011005;28;20033;-49
2023/08/05 05:53:42;;;;;;;9.77;5.47;;;14.80;99.90;;;;;;5010840;28;20121;-52
2023/08/05 05:56:08;;;;;;;14.98;7.90;;;14.90;99.90;;;;;;5010896;28;20487;-50
2023/08/05 05:58:35;;;;;;;10.07;5.35;;;15.00;99.90;;;;;;5011076;28;20069;-49
2023/08/05 06:01:01;;;;;;;11.23;6.68;;;15.00;99.90;;;;;;5010901;28;20037;-51
2023/08/05 06:03:27;;;;;;;13.27;6.72;;;15.00;99.90;;;;;;5010676;28;20105;-51
2023/08/05 06:05:53;;;;;;;12.65;6.90;;;15.00;99.90;;;;;;5010675;28;20422;-49
2023/08/05 06:08:19;;;;;;;11.10;6.78;;;15.00;99.90;;;;;;5040317;22;20076;-51
2023/08/05 06:10:45;;;;;;;12.13;7.07;;;15.10;99.90;;;;;;5030672;28;20064;-50
2023/08/05 06:13:11;;;;;;;12.52;6.70;;;15.10;99.90;;;;;;5030315;28;20091;-50
2023/08/05 06:15:41;;;;;;;12.60;6.90;;;15.10;99.90;;;;;;5030394;28;20498;-51
2023/08/05 06:18:09;;;;;;;10.65;6.22;;;15.20;99.90;;;;;;5030648;28;20470;-50
2023/08/05 06:20:36;;;;;;;13.55;7.93;;;15.10;99.90;;;;;;5012835;28;20399;-50
2023/08/05 06:23:01;;;;;;;13.35;7.55;;;15.10;99.90;;;;;;5030586;28;20129;-49
2023/08/05 06:25:27;;;;;;;14.48;8.02;;;15.20;99.90;;;;;;5030364;28;20124;-51
2023/08/05 06:27:53;;;;;;;13.43;7.68;;;15.20;99.90;;;;;;5031518;28;20056;-51
2023/08/05 06:30:19;;;;;;;14.77;8.68;;;15.20;99.90;;;;;;5034420;28;20056;-51
2023/08/05 06:32:44;;;;;;;15.73;8.10;;;15.20;99.90;;;;;;5034194;28;20048;-49
2023/08/05 06:35:10;;;;;;;13.40;7.30;;;15.30;99.90;;;;;;5034280;28;20053;-49
2023/08/05 06:37:36;;;;;;;11.90;7.50;;;15.30;99.90;;;;;;5034463;28;20457;-50
2023/08/05 06:40:02;;;;;;;12.70;7.25;;;15.30;99.90;;;;;;5034399;28;20026;-54
2023/08/05 06:42:27;;;;;;;13.10;7.57;;;15.40;99.90;;;;;;5033933;28;20075;-51
2023/08/05 06:44:54;;;;;;;12.23;8.10;;;15.40;99.90;;;;;;5016344;28;20394;-48
2023/08/05 06:47:19;;;;;;;11.73;7.32;;;15.40;99.90;;;;;;5034278;28;20075;-49
2023/08/05 06:49:45;;;;;;;15.13;7.55;;;15.50;99.90;;;;;;5034162;28;20190;-51
2023/08/05 06:52:11;;;;;;;12.88;7.38;;;15.60;99.90;;;;;;5033885;28;20029;-50
2023/08/05 06:54:36;;;;;;;12.82;8.05;;;15.70;99.90;;;;;;5033948;28;20029;-54
2023/08/05 06:57:02;;;;;;;14.98;7.60;;;15.70;99.90;;;;;;5034019;28;20034;-50
2023/08/05 06:59:28;;;;;;;14.43;8.23;;;15.90;99.90;;;;;;5033996;28;20075;-54
2023/08/05 07:01:54;;;;;;;16.83;8.63;;;16.00;99.90;;;;;;5033883;28;20442;-50
2023/08/05 07:04:19;;;;;;;21.48;10.60;;;16.10;99.90;;;;;;5033731;28;20559;-50
2023/08/05 07:06:45;;;;;;;15.77;8.90;;;16.10;99.90;;;;;;5033589;28;20155;-53
2023/08/05 07:09:11;;;;;;;16.45;9.70;;;16.10;99.90;;;;;;5034184;28;20037;-50
2023/08/05 07:11:37;;;;;;;15.23;8.73;;;16.10;99.90;;;;;;5033584;28;20312;-52
2023/08/05 07:14:02;;;;;;;13.98;9.00;;;16.10;99.90;;;;;;5033557;28;20044;-50
2023/08/05 07:16:28;;;;;;;15.23;9.00;;;16.20;99.90;;;;;;5033444;28;20033;-53
2023/08/05 07:18:54;;;;;;;16.05;9.27;;;16.40;99.90;;;;;;5033641;28;20083;-54
2023/08/05 07:21:19;;;;;;;13.77;8.43;;;16.50;99.90;;;;;;5033540;28;20067;-54
2023/08/05 07:23:46;;;;;;;14.98;8.73;;;16.50;99.90;;;;;;5033702;28;20320;-52
2023/08/05 07:26:11;;;;;;;15.85;8.10;;;16.50;99.90;;;;;;5033373;28;20103;-52
2023/08/05 07:28:37;;;;;;;13.70;8.23;;;16.50;99.90;;;;;;5033547;28;20037;-55
2023/08/05 07:31:08;;;;;;;11.90;7.72;;;16.60;99.90;;;;;;5033475;28;20033;-50
2023/08/05 07:33:34;;;;;;;12.70;7.50;;;16.60;99.90;;;;;;5015297;28;20076;-52
2023/08/05 07:36:10;;;;;;;14.75;8.23;;;16.60;99.90;;;;;;5033131;28;20061;-49
2023/08/05 07:38:39;;;;;;;12.88;7.13;;;16.70;99.90;;;;;;5033079;28;20225;-51
2023/08/05 07:41:06;;;;;;;15.50;8.02;;;16.80;99.90;;;;;;5033462;28;20437;-53
2023/08/05 07:43:35;;;;;;;13.73;7.93;;;16.80;99.90;;;;;;5015046;28;20498;-50
2023/08/05 07:46:05;;;;;;;18.58;10.77;;;16.90;99.90;;;;;;5033077;28;20117;-52
2023/08/05 07:48:35;;;;;;;13.40;8.32;;;16.80;99.90;;;;;;5033169;28;20061;-50
2023/08/05 07:51:02;;;;;;;26.95;16.33;;;16.90;99.90;;;;;;5033232;28;20036;-54
2023/08/05 07:53:30;;;;;;;13.55;8.70;;;17.00;99.90;;;;;;5033100;28;20037;-52
2023/08/05 07:55:58;;;;;;;12.48;7.97;;;17.10;99.90;;;;;;5032870;28;20117;-54
2023/08/05 07:58:24;;;;;;;15.18;8.40;;;17.30;99.90;;;;;;5033114;28;20025;-52
2023/08/05 08:00:55;;;;;;;15.85;8.82;;;17.40;99.90;;;;;;5015436;28;20670;-51
2023/08/05 08:03:23;;;;;;;12.25;8.30;;;17.50;99.90;;;;;;5032701;28;20033;-50
2023/08/05 08:05:49;;;;;;;12.57;8.35;;;17.70;99.90;;;;;;5032549;28;20037;-50
2023/08/05 08:08:14;;;;;;;11.07;6.55;;;17.80;99.90;;;;;;5032642;28;20119;-50
2023/08/05 08:10:40;;;;;;;11.25;6.38;;;17.90;99.90;;;;;;5032780;28;20034;-50
2023/08/05 08:13:05;;;;;;;14.52;7.75;;;18.00;99.90;;;;;;5032366;28;20139;-50
2023/08/05 08:15:31;;;;;;;12.10;6.03;;;17.90;99.90;;;;;;5032529;28;20021;-50
2023/08/05 08:17:57;;;;;;;12.07;7.45;;;18.00;99.90;;;;;;5032785;28;20500;-49
2023/08/05 08:20:22;;;;;;;14.65;7.90;;;18.00;99.90;;;;;;5032858;28;20025;-49
2023/08/05 08:22:48;;;;;;;10.02;5.82;;;18.00;99.90;;;;;;5014809;28;20104;-50
2023/08/05 08:25:13;;;;;;;8.63;5.55;;;18.10;99.90;;;;;;5032579;28;20408;-49
2023/08/05 08:27:39;;;;;;;7.38;5.00;;;18.20;99.90;;;;;;5032625;28;20033;-49
2023/08/05 08:30:07;;;;;;;8.57;5.13;;;18.30;99.90;;;;;;5032620;28;20466;-53
2023/08/05 08:32:33;;;;;;;6.38;4.18;;;18.30;99.90;;;;;;5032075;28;20037;-54
2023/08/05 08:34:58;;;;;;;8.35;5.03;;;18.50;99.90;;;;;;5031979;28;20121;-53
2023/08/05 08:37:24;;;;;;;11.93;5.10;;;18.60;99.90;;;;;;5032151;28;20029;-50
2023/08/05 08:39:49;;;;;;;7.50;4.20;;;18.70;99.90;;;;;;5032326;28;20347;-49
2023/08/05 08:42:20;;;;;;;6.38;4.38;;;18.70;99.90;;;;;;5032060;28;20030;-51
2023/08/05 08:44:46;;;;;;;8.07;4.70;;;18.70;99.90;;;;;;5032000;28;20076;-53
2023/08/05 08:47:12;;;;;;;11.35;4.47;;;18.60;99.90;;;;;;5032049;28;20471;-51
2023/08/05 08:49:38;;;;;;;9.10;4.72;;;18.60;99.90;;;;;;5031913;28;20117;-50
2023/08/05 08:52:05;;;;;;;5.65;4.43;;;18.40;99.90;;;;;;5031187;28;20538;-54
2023/08/05 08:54:31;;;;;;;7.03;4.00;;;18.40;99.90;;;;;;5031888;28;20598;-49
2023/08/05 08:56:56;;;;;;;6.68;4.05;;;18.40;99.90;;;;;;5031690;28;20048;-50
2023/08/05 08:59:22;;;;;;;7.28;4.03;;;18.40;99.90;;;;;;5031792;28;20026;-52
2023/08/05 09:01:48;;;;;;;6.15;3.75;;;18.40;99.90;;;;;;5031607;28;20064;-50
2023/08/05 09:04:15;;;;;;;6.82;3.92;;;18.40;99.90;;;;;;5031520;28;20034;-52
2023/08/05 09:06:42;;;;;;;7.18;4.53;;;18.60;99.90;;;;;;5031386;28;20105;-54
2023/08/05 09:09:07;;;;;;;5.53;4.03;;;18.80;99.90;;;;;;5031514;28;20033;-54
2023/08/05 09:11:33;;;;;;;5.57;3.85;;;19.00;99.90;;;;;;5031337;28;20032;-52
2023/08/05 09:13:59;;;;;;;8.18;4.57;;;18.90;99.90;;;;;;5031697;28;20489;-52
2023/08/05 09:16:26;;;;;;;5.38;3.85;;;19.00;99.90;;;;;;5031273;28;20116;-54
2023/08/05 09:18:53;;;;;;;4.97;3.85;;;19.10;99.90;;;;;;5031431;28;20041;-54
2023/08/05 09:21:26;;;;;;;5.32;3.72;;;19.20;99.90;;;;;;5031265;28;20500;-51
2023/08/05 09:23:56;;;;;;;6.50;4.15;;;19.30;99.90;;;;;;5031375;28;20037;-53
2023/08/05 09:26:30;;;;;;;6.65;3.45;;;19.40;99.90;;;;;;5031204;28;20436;-51
2023/08/05 09:28:57;;;;;;;5.07;3.75;;;19.50;99.90;;;;;;5031333;28;20030;-55
2023/08/05 09:31:23;;;;;;;6.03;3.50;;;19.60;99.90;;;;;;5031080;28;20119;-50
2023/08/05 09:33:48;;;;;;;6.38;3.42;;;19.70;99.90;;;;;;5030987;28;20061;-55
2023/08/05 09:36:22;;;;;;;5.72;3.90;;;19.70;99.90;;;;;;5031007;28;20025;-53
2023/08/05 09:39:11;;;;;;;8.27;3.83;;;19.60;99.90;;;;;;5013519;28;20021;-54
2023/08/05 09:41:37;;;;;;;7.32;3.95;;;19.50;99.90;;;;;;5030907;28;20095;-53
2023/08/05 09:44:05;;;;;;;5.32;3.17;;;19.40;99.90;;;;;;5030921;28;20033;-53
2023/08/05 09:46:40;;;;;;;5.38;3.03;;;19.50;99.90;;;;;;5030851;28;20033;-53
2023/08/05 09:49:08;;;;;;;5.82;3.50;;;19.50;99.90;;;;;;5030966;28;20099;-53
2023/08/05 09:51:35;;;;;;;5.28;3.15;;;19.50;99.90;;;;;;5030628;28;20022;-52
2023/08/05 09:54:03;;;;;;;6.20;3.38;;;19.50;99.90;;;;;;5030791;28;20040;-52
2023/08/05 09:56:30;;;;;;;5.97;3.43;;;19.50;99.90;;;;;;5030582;28;20497;-49
2023/08/05 09:58:56;;;;;;;5.97;3.97;;;19.50;99.90;;;;;;5030764;28;20079;-54
2023/08/05 10:01:22;;;;;;;4.78;3.42;;;19.40;99.90;;;;;;5030512;28;20017;-53
2023/08/05 10:03:49;;;;;;;3.95;2.55;;;19.50;99.90;;;;;;5029975;28;20441;-53
2023/08/05 10:06:15;;;;;;;3.83;2.80;;;19.50;99.90;;;;;;5030444;28;20041;-54
2023/08/05 10:08:42;;;;;;;5.03;3.20;;;19.70;99.90;;;;;;5030509;28;20401;-54
2023/08/05 10:11:08;;;;;;;5.18;2.92;;;19.90;99.90;;;;;;5013106;28;20033;-53
2023/08/05 10:13:41;;;;;;;6.97;3.55;;;20.00;99.90;;;;;;5030286;28;20040;-52
2023/08/05 10:16:08;;;;;;;4.97;2.55;;;20.20;99.90;;;;;;5030403;28;20034;-52
2023/08/05 10:18:38;;;;;;;3.83;2.35;;;20.20;99.90;;;;;;5030506;28;20033;-51
2023/08/05 10:21:05;;;;;;;5.43;2.63;;;20.30;99.90;;;;;;5030617;28;20022;-53
2023/08/05 10:23:35;;;;;;;3.15;2.10;;;20.20;99.90;;;;;;5030128;28;20087;-53
2023/08/05 10:26:03;;;;;;;4.45;2.13;;;20.20;99.90;;;;;;5030350;28;20086;-50
2023/08/05 10:28:34;;;;;;;2.60;2.03;;;20.10;99.90;;;;;;5030478;28;20036;-52
2023/08/05 10:31:04;;;;;;;3.72;2.08;;;20.30;99.90;;;;;;5030597;28;20124;-51
2023/08/05 10:33:30;;;;;;;4.05;2.83;;;20.60;99.90;;;;;;5030093;28;20104;-51
2023/08/05 10:36:06;;;;;;;4.43;2.35;;;20.90;99.90;;;;;;5030065;28;20140;-53
2023/08/05 10:38:41;;;;;;;3.22;2.05;;;21.00;99.90;;;;;;5030335;28;20028;-49
2023/08/05 10:41:10;;;;;;;2.53;2.03;;;21.10;99.90;;;;;;5012791;28;20029;-53
2023/08/05 10:43:40;;;;;;;4.30;2.40;;;21.00;99.90;;;;;;5030458;28;20099;-51
2023/08/05 10:46:06;;;;;;;3.95;2.10;;;20.90;99.90;;;;;;5030217;28;20031;-51
2023/08/05 10:48:35;;;;;;;3.47;2.30;;;21.00;99.90;;;;;;5012552;28;20029;-52
2023/08/05 10:51:08;;;;;;;;;;;21.00;99.90;;;;;;5030910;28;20037;-49
2023/08/05 10:53:34;;;;;;;7.53;4.30;;;21.10;99.90;;;;;;5029943;28;19919;-52
2023/08/05 10:56:01;;;;;;;3.38;2.40;;;21.10;99.90;;;;;;5030179;28;20025;-49
2023/08/05 10:58:30;;;;;;;9.45;5.75;;;21.20;99.90;;;;;;5030179;28;20032;-48
2023/08/05 11:00:59;;;;;;;7.10;3.95;;;21.10;99.90;;;;;;5030144;28;20112;-48
2023/08/05 11:03:41;;;;;;;4.80;2.20;;;21.00;99.90;;;;;;5029933;28;20041;-50
2023/08/05 11:06:08;;;;;;;3.17;1.80;;;20.80;99.90;;;;;;5030140;28;20128;-48
2023/08/05 11:08:36;;;;;;;4.15;2.35;;;20.70;99.90;;;;;;5030164;28;20200;-48
2023/08/05 11:11:06;;;;;;;3.17;1.80;;;20.70;99.90;;;;;;5030798;28;20116;-48
2023/08/05 11:13:37;;;;;;;2.70;1.70;;;20.90;99.90;;;;;;5030315;28;20036;-48
2023/08/05 11:16:03;;;;;;;2.40;1.80;;;21.00;99.90;;;;;;5033814;28;20030;-49
2023/08/05 11:18:30;;;;;;;3.72;1.90;;;20.90;99.90;;;;;;5033858;28;20036;-53
2023/08/05 11:20:56;;;;;;;5.03;1.90;;;20.90;99.90;;;;;;5033937;28;20112;-50
2023/08/05 11:23:24;;;;;;;2.78;1.77;;;20.90;99.90;;;;;;5033703;28;20087;-48
2023/08/05 11:25:51;;;;;;;3.25;1.83;;;20.90;99.90;;;;;;5033946;28;20403;-53
2023/08/05 11:28:17;;;;;;;2.42;1.52;;;20.90;99.90;;;;;;5034232;28;20087;-49
2023/08/05 11:30:42;;;;;;;3.50;2.10;;;20.90;99.90;;;;;;5016473;28;20116;-50
2023/08/05 11:33:08;;;;;;;3.92;1.80;;;20.70;99.90;;;;;;5033613;28;20463;-53
2023/08/05 11:35:45;;;;;;;2.25;1.70;;;20.70;99.90;;;;;;5033816;28;20450;-51
2023/08/05 11:38:18;;;;;;;2.78;1.52;;;20.60;99.90;;;;;;5033516;28;20030;-53
2023/08/05 11:40:45;;;;;;;2.55;1.80;;;20.50;99.90;;;;;;5033550;28;20072;-52
2023/08/05 11:43:13;;;;;;;2.58;1.65;;;20.40;99.90;;;;;;5015557;28;20502;-53
2023/08/05 11:45:42;;;;;;;2.42;1.60;;;20.40;99.90;;;;;;5033314;28;20182;-54
2023/08/05 11:48:22;;;;;;;2.75;1.98;;;20.30;99.90;;;;;;5033254;28;20025;-53
2023/08/05 11:50:49;;;;;;;2.40;1.70;;;20.20;99.90;;;;;;5033160;28;20029;-54
2023/08/05 11:53:16;;;;;;;2.85;1.92;;;20.20;99.90;;;;;;5032998;28;20277;-54
2023/08/05 11:55:42;;;;;;;2.92;2.03;;;20.20;99.90;;;;;;5032854;28;20065;-52
2023/08/05 11:58:10;;;;;;;3.40;1.92;;;20.30;99.90;;;;;;5033184;28;20112;-53
2023/08/05 12:00:36;;;;;;;2.70;1.70;;;20.30;99.90;;;;;;5033284;28;20079;-54
2023/08/05 12:03:05;;;;;;;2.20;1.65;;;20.50;99.90;;;;;;5032642;28;20041;-52
2023/08/05 12:05:31;;;;;;;;;;;20.70;99.90;;;;;;5033247;28;20025;-54
2023/08/05 12:07:57;;;;;;;3.13;1.70;;;20.90;99.90;;;;;;5032727;28;19960;-53
2023/08/05 12:10:22;;;;;;;3.95;1.70;;;21.20;99.90;;;;;;5032768;28;20465;-50
2023/08/05 12:12:49;;;;;;;1.98;1.40;;;21.40;99.90;;;;;;5032304;28;20052;-54
2023/08/05 12:15:20;;;;;;;2.80;1.80;;;21.70;99.90;;;;;;5032709;28;20175;-51
2023/08/05 12:17:48;;;;;;;2.95;1.60;;;21.80;99.90;;;;;;5032597;28;20040;-51
2023/08/05 12:20:36;;;;;;;2.38;1.40;;;22.00;99.90;;;;;;5032435;28;20110;-51
2023/08/05 12:23:03;;;;;;;2.58;1.75;;;22.30;99.90;;;;;;5032293;28;20123;-52
2023/08/05 12:25:30;;;;;;;2.90;1.52;;;22.40;99.90;;;;;;5031230;28;20072;-52
2023/08/05 12:27:57;;;;;;;2.70;1.25;;;22.50;99.90;;;;;;5032441;28;20040;-52
2023/08/05 12:30:23;;;;;;;1.63;1.20;;;22.30;99.90;;;;;;5032328;28;20029;-53
2023/08/05 12:32:50;;;;;;;1.58;1.20;;;22.20;99.90;;;;;;5031884;28;20044;-51
2023/08/05 12:35:16;;;;;;;3.20;1.15;;;22.10;99.90;;;;;;5032093;28;20057;-52
2023/08/05 12:37:42;;;;;;;3.05;1.60;;;21.90;99.90;;;;;;5032207;28;20386;-49
2023/08/05 12:40:12;;;;;;;3.58;1.92;;;21.80;99.90;;;;;;5032242;28;20029;-48
2023/08/05 12:42:38;;;;;;;1.88;1.20;;;21.70;99.90;;;;;;5031804;28;20037;-48
2023/08/05 12:45:05;;;;;;;2.08;1.38;;;21.60;99.90;;;;;;5031685;28;20053;-49